sensor_id;sensor_type;location;lat;lon;timestamp;P1;durP1;ratioP1;P2;durP2;ratioP2
45314;SDS011;31051;51.540;5.852;2023-09-30T00:01:24;13.5;;;7.0;;
45314;SDS011;31051;51.540;5.852;2023-09-30T00:14:23;12.3;;;7.0;;
45314;SDS011;31051;51.540;5.852;2023-09-30T00:27:22;12.5;;;7.6;;
45314;SDS011;31051;51.540;5.852;2023-09-30T00:40:22;12.3;;;7.6;;
45314;SDS011;31051;51.540;5.852;2023-09-30T00:53:21;12.2;;;7.4;;
45314;SDS011;31051;51.540;5.852;2023-09-30T01:06:20;11.7;;;7.7;;
45314;SDS011;31051;51.540;5.852;2023-09-30T01:19:20;13.0;;;8.2;;
45314;SDS011;31051;51.540;5.852;2023-09-30T01:32:19;12.4;;;8.2;;
45314;SDS011;31051;51.540;5.852;2023-09-30T01:45:18;12.6;;;9.2;;
45314;SDS011;31051;51.540;5.852;2023-09-30T01:58:18;12.9;;;10.0;;
45314;SDS011;31051;51.540;5.852;2023-09-30T02:11:17;13.6;;;10.2;;
45314;SDS011;31051;51.540;5.852;2023-09-30T02:24:16;15.4;;;11.7;;
45314;SDS011;31051;51.540;5.852;2023-09-30T02:37:16;13.9;;;11.7;;
45314;SDS011;31051;51.540;5.852;2023-09-30T02:50:15;14.1;;;11.6;;
45314;SDS011;31051;51.540;5.852;2023-09-30T03:03:14;15.8;;;12.6;;
45314;SDS011;31051;51.540;5.852;2023-09-30T03:16:14;15.7;;;13.0;;
45314;SDS011;31051;51.540;5.852;2023-09-30T03:29:13;15.4;;;12.3;;
45314;SDS011;31051;51.540;5.852;2023-09-30T03:42:12;16.9;;;13.1;;
45314;SDS011;31051;51.540;5.852;2023-09-30T03:55:11;14.4;;;12.0;;
45314;SDS011;31051;51.540;5.852;2023-09-30T04:08:11;15.8;;;12.9;;
45314;SDS011;31051;51.540;5.852;2023-09-30T04:21:10;18.3;;;14.3;;
45314;SDS011;31051;51.540;5.852;2023-09-30T04:34:09;18.8;;;15.3;;
45314;SDS011;31051;51.540;5.852;2023-09-30T04:47:09;16.3;;;13.8;;
45314;SDS011;31051;51.540;5.852;2023-09-30T05:00:08;19.6;;;16.8;;
45314;SDS011;31051;51.540;5.852;2023-09-30T05:13:07;23.5;;;20.2;;
45314;SDS011;31051;51.540;5.852;2023-09-30T05:26:07;23.1;;;20.1;;
45314;SDS011;31051;51.540;5.852;2023-09-30T05:39:06;25.4;;;20.7;;
45314;SDS011;31051;51.540;5.852;2023-09-30T05:52:05;22.7;;;20.2;;
45314;SDS011;31051;51.540;5.852;2023-09-30T06:05:05;21.2;;;18.2;;
45314;SDS011;31051;51.540;5.852;2023-09-30T06:18:04;24.0;;;18.4;;
45314;SDS011;31051;51.540;5.852;2023-09-30T06:44:02;22.2;;;18.9;;
45314;SDS011;31051;51.540;5.852;2023-09-30T06:57:02;20.8;;;18.1;;
45314;SDS011;31051;51.540;5.852;2023-09-30T07:10:01;20.8;;;17.3;;
45314;SDS011;31051;51.540;5.852;2023-09-30T07:23:00;22.3;;;17.9;;
45314;SDS011;31051;51.540;5.852;2023-09-30T07:36:00;20.2;;;15.1;;
45314;SDS011;31051;51.540;5.852;2023-09-30T07:48:59;18.4;;;12.8;;
45314;SDS011;31051;51.540;5.852;2023-09-30T08:01:58;16.0;;;11.2;;
45314;SDS011;31051;51.540;5.852;2023-09-30T08:14:47;17.3;;;10.4;;
45314;SDS011;31051;51.540;5.852;2023-09-30T08:27:46;14.3;;;9.2;;
45314;SDS011;31051;51.540;5.852;2023-09-30T08:40:46;15.4;;;9.6;;
45314;SDS011;31051;51.540;5.852;2023-09-30T08:53:45;14.4;;;9.9;;
45314;SDS011;31051;51.540;5.852;2023-09-30T09:06:44;13.9;;;9.3;;
45314;SDS011;31051;51.540;5.852;2023-09-30T09:19:44;12.3;;;9.5;;
45314;SDS011;31051;51.540;5.852;2023-09-30T09:32:43;12.5;;;8.6;;
45314;SDS011;31051;51.540;5.852;2023-09-30T09:45:42;11.9;;;8.7;;
45314;SDS011;31051;51.540;5.852;2023-09-30T09:58:42;10.6;;;8.2;;
45314;SDS011;31051;51.540;5.852;2023-09-30T10:11:40;9.6;;;6.9;;
45314;SDS011;31051;51.540;5.852;2023-09-30T10:24:30;9.0;;;6.5;;
45314;SDS011;31051;51.540;5.852;2023-09-30T10:37:29;8.1;;;5.1;;
45314;SDS011;31051;51.540;5.852;2023-09-30T10:50:28;7.3;;;4.3;;
45314;SDS011;31051;51.540;5.852;2023-09-30T11:03:16;7.2;;;4.2;;
45314;SDS011;31051;51.540;5.852;2023-09-30T11:16:04;6.5;;;4.2;;
45314;SDS011;31051;51.540;5.852;2023-09-30T11:28:53;6.4;;;3.4;;
45314;SDS011;31051;51.540;5.852;2023-09-30T11:41:42;7.2;;;3.7;;
45314;SDS011;31051;51.540;5.852;2023-09-30T11:54:40;6.4;;;3.2;;
45314;SDS011;31051;51.540;5.852;2023-09-30T12:07:29;6.0;;;3.2;;
45314;SDS011;31051;51.540;5.852;2023-09-30T12:20:17;6.8;;;3.5;;
45314;SDS011;31051;51.540;5.852;2023-09-30T12:33:05;7.4;;;3.7;;
45314;SDS011;31051;51.540;5.852;2023-09-30T12:45:55;6.1;;;3.3;;
45314;SDS011;31051;51.540;5.852;2023-09-30T12:58:54;6.4;;;3.4;;
45314;SDS011;31051;51.540;5.852;2023-09-30T13:11:54;6.9;;;3.5;;
45314;SDS011;31051;51.540;5.852;2023-09-30T13:24:52;6.4;;;3.4;;
45314;SDS011;31051;51.540;5.852;2023-09-30T13:37:40;6.3;;;3.3;;
45314;SDS011;31051;51.540;5.852;2023-09-30T13:50:30;6.3;;;3.7;;
45314;SDS011;31051;51.540;5.852;2023-09-30T14:03:29;5.4;;;3.4;;
45314;SDS011;31051;51.540;5.852;2023-09-30T14:16:28;6.9;;;3.6;;
45314;SDS011;31051;51.540;5.852;2023-09-30T14:29:17;7.0;;;4.0;;
45314;SDS011;31051;51.540;5.852;2023-09-30T14:42:16;6.5;;;4.3;;
45314;SDS011;31051;51.540;5.852;2023-09-30T14:55:16;6.3;;;4.8;;
45314;SDS011;31051;51.540;5.852;2023-09-30T15:08:15;6.3;;;4.8;;
45314;SDS011;31051;51.540;5.852;2023-09-30T15:21:15;6.7;;;4.7;;
45314;SDS011;31051;51.540;5.852;2023-09-30T15:34:13;6.1;;;4.4;;
45314;SDS011;31051;51.540;5.852;2023-09-30T15:47:02;6.5;;;4.6;;
45314;SDS011;31051;51.540;5.852;2023-09-30T16:00:01;6.6;;;4.5;;
45314;SDS011;31051;51.540;5.852;2023-09-30T16:12:50;6.3;;;4.5;;
45314;SDS011;31051;51.540;5.852;2023-09-30T16:25:49;6.0;;;4.6;;
45314;SDS011;31051;51.540;5.852;2023-09-30T16:38:49;5.7;;;4.4;;
45314;SDS011;31051;51.540;5.852;2023-09-30T16:51:47;6.1;;;4.2;;
45314;SDS011;31051;51.540;5.852;2023-09-30T17:04:36;6.1;;;4.4;;
45314;SDS011;31051;51.540;5.852;2023-09-30T17:17:25;6.3;;;3.9;;
45314;SDS011;31051;51.540;5.852;2023-09-30T17:30:24;6.5;;;5.3;;
45314;SDS011;31051;51.540;5.852;2023-09-30T17:43:24;6.8;;;5.1;;
45314;SDS011;31051;51.540;5.852;2023-09-30T17:56:23;8.0;;;6.2;;
45314;SDS011;31051;51.540;5.852;2023-09-30T18:09:22;8.7;;;6.1;;
45314;SDS011;31051;51.540;5.852;2023-09-30T18:22:22;8.4;;;6.4;;
45314;SDS011;31051;51.540;5.852;2023-09-30T18:35:21;10.6;;;8.5;;
45314;SDS011;31051;51.540;5.852;2023-09-30T18:48:20;12.0;;;9.5;;
45314;SDS011;31051;51.540;5.852;2023-09-30T19:01:20;11.7;;;9.7;;
45314;SDS011;31051;51.540;5.852;2023-09-30T19:14:19;12.3;;;10.0;;
45314;SDS011;31051;51.540;5.852;2023-09-30T19:27:18;12.8;;;10.9;;
45314;SDS011;31051;51.540;5.852;2023-09-30T19:40:18;12.5;;;10.8;;
45314;SDS011;31051;51.540;5.852;2023-09-30T19:53:17;12.4;;;10.5;;
45314;SDS011;31051;51.540;5.852;2023-09-30T20:06:17;12.6;;;10.8;;
45314;SDS011;31051;51.540;5.852;2023-09-30T20:19:16;14.1;;;11.3;;
45314;SDS011;31051;51.540;5.852;2023-09-30T20:32:15;13.9;;;12.3;;
45314;SDS011;31051;51.540;5.852;2023-09-30T20:45:15;15.4;;;13.6;;
45314;SDS011;31051;51.540;5.852;2023-09-30T20:58:14;15.1;;;13.4;;
45314;SDS011;31051;51.540;5.852;2023-09-30T21:11:13;15.8;;;13.7;;
45314;SDS011;31051;51.540;5.852;2023-09-30T21:24:13;14.7;;;12.6;;
45314;SDS011;31051;51.540;5.852;2023-09-30T21:37:12;13.9;;;12.5;;
45314;SDS011;31051;51.540;5.852;2023-09-30T21:50:11;14.2;;;12.7;;
45314;SDS011;31051;51.540;5.852;2023-09-30T22:03:11;13.9;;;12.2;;
45314;SDS011;31051;51.540;5.852;2023-09-30T22:16:10;12.2;;;11.0;;
45314;SDS011;31051;51.540;5.852;2023-09-30T22:29:09;11.7;;;10.5;;
45314;SDS011;31051;51.540;5.852;2023-09-30T22:42:09;12.2;;;11.0;;
45314;SDS011;31051;51.540;5.852;2023-09-30T22:55:08;11.6;;;10.4;;
45314;SDS011;31051;51.540;5.852;2023-09-30T23:08:07;13.5;;;12.1;;
45314;SDS011;31051;51.540;5.852;2023-09-30T23:21:07;12.8;;;11.4;;
45314;SDS011;31051;51.540;5.852;2023-09-30T23:34:06;11.9;;;10.4;;
45314;SDS011;31051;51.540;5.852;2023-09-30T23:47:05;11.3;;;10.0;;
